Terminal Aerodrome Forecast
Issued by NWS

Home | Current Version | Previous Version | Text Only | Print | Product List | Glossary On
Versions: 1 2 3 4 5 6 7 8 9 10 11 12 13 14 15 16 17 18 19 20 21
000
FTUS43 KJKL 241121
TAFSME
TAF
KSME 241121Z 2412/2512 10005KT P6SM -SHRA OVC060
     FM241400 VRB05KT 4SM -SHRA BR OVC015
     FM241800 VRB05KT 5SM -SHRA BR VCTS OVC015CB
     FM242200 VRB05KT 4SM BR VCSH OVC015
     FM250400 VRB03KT 3SM BR VCSH OVC007
     FM250900 VRB03KT 4SM BR VCSH OVC003=

USA.gov is the U.S. government's official web portal to all federal, state and local government web resources and services.